createdAt,value
2022-08-21T00:00:55.734Z,75.77
2022-08-21T00:03:23.564Z,75.74
2022-08-21T00:05:52.791Z,76.38
2022-08-21T00:08:21.386Z,76.23
2022-08-21T00:10:49.888Z,76.51
2022-08-21T00:13:20.568Z,76.17
2022-08-21T00:15:51.178Z,76.67
2022-08-21T00:18:20.158Z,76.98
2022-08-21T00:20:48.796Z,77.17
2022-08-21T00:23:17.210Z,77.61
2022-08-21T00:25:46.147Z,77.67
2022-08-21T00:28:15.040Z,78.26
2022-08-21T00:30:44.301Z,79.04
2022-08-21T00:33:14.324Z,78.24
2022-08-21T00:35:43.854Z,79.09
2022-08-21T00:38:12.145Z,79.16
2022-08-21T00:40:43.718Z,79.42
2022-08-21T00:43:14.182Z,80.41
2022-08-21T00:45:41.894Z,80.71
2022-08-21T00:48:09.887Z,81.17
2022-08-21T00:50:44.013Z,80.08
2022-08-21T00:53:13.117Z,79.61
2022-08-21T00:55:41.990Z,79.54
2022-08-21T00:58:12.962Z,79.93
2022-08-21T05:01:48.460Z,100.00
2022-08-21T05:04:19.951Z,99.90
2022-08-21T05:06:49.506Z,99.21
2022-08-21T05:09:20.070Z,99.15
2022-08-21T05:11:49.682Z,98.55
2022-08-21T05:14:17.744Z,97.92
2022-08-21T05:16:45.784Z,98.60
2022-08-21T05:19:14.820Z,98.79
2022-08-21T05:21:45.828Z,98.74
2022-08-21T05:24:13.557Z,98.48
2022-08-21T05:26:46.362Z,98.05
2022-08-21T05:29:15.562Z,97.99
2022-08-21T05:31:44.235Z,98.08
2022-08-21T05:34:11.948Z,98.95
2022-08-21T05:36:45.517Z,100.00
2022-08-21T05:39:13.461Z,99.54
2022-08-21T05:41:41.034Z,99.22
2022-08-21T05:44:10.579Z,98.67
2022-08-21T05:46:39.509Z,97.67
2022-08-21T05:49:07.812Z,97.59
2022-08-21T05:51:36.176Z,97.15
2022-08-21T05:54:05.145Z,96.94
2022-08-21T05:56:32.782Z,96.76
2022-08-21T05:59:00.455Z,96.84
2022-08-21T06:01:28.770Z,97.23
2022-08-21T06:04:00.031Z,97.79
2022-08-21T06:06:29.241Z,97.85
2022-08-21T06:08:56.818Z,97.91
2022-08-21T06:11:28.862Z,98.40
2022-08-21T06:13:57.164Z,97.86
2022-08-21T06:16:24.990Z,97.00
2022-08-21T06:18:53.040Z,96.29
2022-08-21T06:21:21.163Z,96.01
2022-08-21T06:23:49.076Z,95.51
2022-08-21T06:26:16.879Z,95.54
2022-08-21T06:28:46.000Z,95.06
2022-08-21T06:31:16.163Z,95.15
2022-08-21T06:33:44.310Z,94.84
2022-08-21T06:36:12.153Z,94.57
2022-08-21T06:38:40.254Z,93.70
2022-08-21T06:41:08.939Z,93.36
2022-08-21T06:43:38.009Z,92.24
2022-08-21T06:46:09.284Z,91.37
2022-08-21T06:48:37.535Z,90.55
2022-08-21T06:51:05.444Z,89.58
2022-08-21T06:53:33.469Z,89.93
2022-08-21T06:56:02.701Z,89.65
2022-08-21T06:58:30.944Z,89.76
2022-08-21T07:01:01.342Z,89.01
2022-08-21T07:03:34.015Z,89.72
2022-08-21T07:06:01.655Z,88.98
2022-08-21T07:08:30.060Z,88.53
2022-08-21T07:11:00.400Z,87.94
2022-08-21T07:13:28.770Z,87.02
2022-08-21T07:16:00.277Z,86.79
2022-08-21T07:18:33.325Z,86.48
2022-08-21T07:21:02.595Z,85.01
2022-08-21T07:23:33.730Z,84.82
2022-08-21T07:26:02.292Z,83.91
2022-08-21T07:28:31.024Z,83.19
2022-08-21T07:31:00.610Z,81.30
2022-08-21T07:33:31.343Z,80.94
2022-08-21T07:36:00.558Z,77.84
2022-08-21T07:38:28.273Z,78.73
2022-08-21T07:40:59.742Z,78.60
2022-08-21T07:43:27.775Z,76.76
2022-08-21T07:45:56.268Z,75.71
2022-08-21T07:48:24.576Z,74.37
2022-08-21T07:50:52.891Z,73.65
2022-08-21T07:53:22.346Z,71.46
2022-08-21T07:55:50.098Z,71.89
2022-08-21T07:58:18.142Z,71.39
2022-08-21T08:00:45.813Z,73.06
2022-08-21T08:03:13.415Z,72.69
2022-08-21T08:05:42.931Z,72.47
2022-08-21T08:08:10.580Z,72.06
2022-08-21T08:10:40.220Z,72.03
2022-08-21T08:13:10.528Z,70.16
2022-08-21T08:15:38.872Z,67.93
2022-08-21T08:18:06.719Z,66.19
2022-08-21T08:20:34.510Z,66.85
2022-08-21T08:23:02.349Z,65.03
2022-08-21T08:25:32.773Z,65.01
2022-08-21T08:28:16.965Z,64.17
2022-08-21T08:30:45.800Z,64.97
2022-08-21T08:33:13.463Z,62.74
2022-08-21T08:35:48.528Z,62.88
2022-08-21T08:38:19.747Z,63.02
2022-08-21T08:40:55.567Z,62.81
2022-08-21T08:43:24.683Z,60.84
2022-08-21T08:45:56.500Z,60.55
2022-08-21T08:48:38.367Z,59.96
2022-08-21T08:51:10.670Z,60.10
2022-08-21T08:53:50.159Z,61.32
2022-08-21T08:56:23.304Z,58.94
2022-08-21T08:58:54.452Z,59.15
2022-08-21T09:01:22.439Z,58.09
2022-08-21T09:03:52.802Z,57.95
2022-08-21T09:06:30.042Z,58.84
2022-08-21T09:09:13.259Z,57.30
2022-08-21T09:11:50.576Z,58.31
2022-08-21T09:14:29.218Z,57.86
2022-08-21T09:17:03.669Z,59.52
2022-08-21T09:19:51.470Z,62.81
2022-08-21T09:22:25.490Z,61.03
2022-08-21T09:25:04.552Z,60.44
2022-08-21T09:27:33.715Z,58.43
2022-08-21T09:30:03.515Z,58.15
2022-08-21T09:32:37.861Z,57.88
2022-08-21T09:35:09.434Z,57.27
2022-08-21T09:37:49.311Z,60.75
2022-08-21T09:40:25.319Z,57.92
2022-08-21T09:42:57.786Z,59.28
2022-08-21T09:45:27.400Z,59.10
2022-08-21T09:48:11.850Z,58.28
2022-08-21T09:50:39.733Z,57.65
2022-08-21T09:53:18.397Z,56.58
2022-08-21T09:56:08.919Z,57.63
2022-08-21T09:58:38.868Z,55.93
2022-08-21T10:01:14.183Z,56.93
2022-08-21T10:03:42.103Z,55.93
2022-08-21T10:06:12.804Z,56.13
2022-08-21T10:08:43.026Z,55.54
2022-08-21T10:11:13.863Z,55.37
2022-08-21T10:13:52.019Z,55.64
2022-08-21T10:16:33.628Z,55.05
2022-08-21T10:19:21.979Z,54.48
2022-08-21T10:22:04.316Z,53.85
2022-08-21T10:24:35.248Z,53.76
2022-08-21T10:27:22.510Z,53.04
2022-08-21T10:29:57.718Z,53.11
2022-08-21T10:32:40.915Z,53.49
2022-08-21T10:35:15.049Z,51.71
2022-08-21T10:37:58.332Z,52.57
2022-08-21T10:40:33.648Z,52.97
2022-08-21T10:43:14.718Z,52.71
2022-08-21T10:45:53.623Z,51.39
2022-08-21T10:48:29.651Z,51.78
2022-08-21T10:51:06.477Z,51.34
2022-08-21T10:53:43.790Z,50.95
2022-08-21T10:56:17.844Z,51.93
2022-08-21T10:58:55.604Z,51.34
2022-08-21T11:01:29.882Z,50.24
2022-08-21T11:04:13.516Z,50.47
2022-08-21T11:06:52.343Z,48.24
2022-08-21T11:09:23.664Z,47.18
2022-08-21T11:11:59.303Z,47.87
2022-08-21T11:14:50.489Z,49.70
2022-08-21T11:17:27.188Z,48.76
2022-08-21T11:20:07.693Z,48.81
2022-08-21T11:22:42.224Z,47.33
2022-08-21T11:25:15.999Z,47.97
2022-08-21T11:27:48.404Z,46.38
2022-08-21T11:30:17.019Z,45.74
2022-08-21T11:32:59.575Z,46.05
2022-08-21T11:35:35.549Z,46.03
2022-08-21T11:38:21.541Z,45.69
2022-08-21T11:41:05.536Z,45.93
2022-08-21T11:43:40.516Z,45.23
2022-08-21T11:46:27.319Z,45.67
2022-08-21T11:49:06.377Z,46.43
2022-08-21T11:51:41.012Z,47.22
2022-08-21T11:54:17.833Z,46.90
2022-08-21T11:56:49.760Z,47.02
2022-08-21T11:59:22.631Z,46.12
2022-08-21T12:01:53.609Z,46.17
2022-08-21T12:04:27.021Z,44.44
2022-08-21T12:06:56.294Z,43.72
2022-08-21T12:09:35.270Z,44.86
2022-08-21T12:12:07.395Z,45.72
2022-08-21T12:14:41.444Z,44.74
2022-08-21T12:17:20.358Z,44.03
2022-08-21T12:20:01.506Z,42.48
2022-08-21T12:22:41.905Z,42.05
2022-08-21T12:25:12.571Z,41.76
2022-08-21T12:27:47.943Z,40.76
2022-08-21T12:30:34.536Z,41.24
2022-08-21T12:33:04.846Z,40.85
2022-08-21T12:35:44.494Z,41.65
2022-08-21T12:38:19.621Z,39.82
2022-08-21T12:40:52.182Z,39.28
2022-08-21T12:43:24.640Z,39.95
2022-08-21T12:45:53.394Z,39.71
2022-08-21T12:48:25.889Z,39.53
2022-08-21T12:50:57.514Z,39.86
2022-08-21T12:53:32.261Z,38.93
2022-08-21T12:56:04.551Z,38.40
2022-08-21T12:58:33.870Z,38.13
2022-08-21T13:01:06.602Z,39.08
2022-08-21T13:03:37.951Z,38.16
2022-08-21T13:06:07.311Z,37.83
2022-08-21T13:08:41.698Z,37.83
2022-08-21T13:11:14.854Z,38.47
2022-08-21T13:13:47.048Z,38.19
2022-08-21T13:16:24.457Z,38.58
2022-08-21T13:18:56.244Z,38.37
2022-08-21T13:21:30.498Z,38.80
2022-08-21T13:24:32.059Z,37.87
2022-08-21T13:27:03.189Z,37.17
2022-08-21T13:29:35.401Z,37.10
2022-08-21T13:32:08.797Z,36.01
2022-08-21T13:34:38.634Z,36.50
2022-08-21T13:37:10.218Z,35.42
2022-08-21T13:39:40.388Z,34.88
2022-08-21T13:42:14.964Z,35.73
2022-08-21T13:44:44.443Z,34.85
2022-08-21T13:47:14.459Z,35.10
2022-08-21T13:49:45.247Z,35.68
2022-08-21T13:52:18.480Z,35.19
2022-08-21T13:54:55.227Z,34.78
2022-08-21T13:57:27.890Z,35.05
2022-08-21T14:00:12.681Z,34.73
2022-08-21T14:02:42.686Z,33.83
2022-08-21T14:05:18.328Z,33.83
2022-08-21T14:07:47.924Z,34.73
2022-08-21T14:10:22.078Z,34.05
2022-08-21T14:12:53.135Z,34.29
2022-08-21T14:15:26.154Z,34.53
2022-08-21T14:17:54.198Z,33.91
2022-08-21T14:20:30.925Z,33.90
2022-08-21T14:22:58.843Z,34.47
2022-08-21T14:25:43.776Z,34.46
2022-08-21T14:28:28.087Z,34.39
2022-08-21T14:30:57.879Z,34.57
2022-08-21T14:33:29.645Z,33.57
2022-08-21T14:35:58.978Z,33.43
2022-08-21T14:38:29.025Z,32.89
2022-08-21T14:41:02.402Z,33.56
2022-08-21T14:43:30.663Z,33.01
2022-08-21T14:45:58.831Z,32.49
2022-08-21T14:48:26.452Z,33.12
2022-08-21T14:50:58.361Z,32.50
2022-08-21T14:53:27.480Z,33.38
2022-08-21T14:56:07.805Z,34.27
2022-08-21T14:58:40.079Z,34.20
2022-08-21T15:01:09.457Z,34.63
2022-08-21T15:03:37.566Z,35.49
2022-08-21T15:06:07.182Z,35.33
2022-08-21T15:08:38.406Z,35.86
2022-08-21T15:11:12.432Z,35.97
2022-08-21T15:13:43.861Z,36.18
2022-08-21T15:16:13.967Z,36.30
2022-08-21T15:18:43.691Z,36.34
2022-08-21T15:21:11.495Z,36.66
2022-08-21T15:23:39.711Z,36.96
2022-08-21T15:26:07.808Z,36.71
2022-08-21T15:28:37.699Z,36.52
2022-08-21T15:31:07.562Z,36.83
2022-08-21T15:33:35.687Z,36.99
2022-08-21T15:36:04.175Z,37.36
2022-08-21T15:38:31.977Z,37.10
2022-08-21T15:40:59.918Z,37.12
2022-08-21T15:43:31.030Z,37.24
2022-08-21T15:46:00.985Z,37.48
2022-08-21T15:48:30.923Z,37.76
2022-08-21T15:50:59.777Z,37.21
2022-08-21T15:53:27.663Z,37.74
2022-08-21T15:55:55.735Z,37.72
2022-08-21T15:58:23.848Z,38.07
2022-08-21T16:00:51.645Z,37.78
2022-08-21T16:03:22.574Z,38.39
2022-08-21T16:05:53.399Z,38.43
2022-08-21T16:08:21.581Z,38.72
2022-08-21T16:10:49.743Z,38.59
2022-08-21T16:13:25.616Z,37.97
2022-08-21T16:15:54.365Z,38.44
2022-08-21T16:18:23.884Z,38.63
2022-08-21T16:20:54.125Z,39.24
2022-08-21T16:23:22.664Z,38.82
2022-08-21T16:25:50.783Z,39.12
2022-08-21T16:28:20.905Z,38.76
2022-08-21T16:30:51.153Z,39.67
2022-08-21T16:33:34.985Z,39.39
2022-08-21T16:36:07.676Z,39.69
2022-08-21T16:38:38.155Z,39.74
2022-08-21T16:41:08.397Z,39.64
2022-08-21T16:43:36.582Z,39.63
2022-08-21T16:46:04.393Z,39.14
2022-08-21T16:48:32.187Z,39.94
2022-08-21T16:51:00.074Z,39.74
2022-08-21T16:53:29.107Z,40.11
2022-08-21T16:55:57.032Z,40.32
2022-08-21T16:58:28.064Z,40.12
2022-08-21T17:00:56.266Z,39.83
2022-08-21T17:03:30.604Z,40.11
2022-08-21T17:05:58.374Z,40.07
2022-08-21T17:08:26.203Z,40.28
2022-08-21T17:10:56.041Z,40.38
2022-08-21T17:13:24.226Z,40.48
2022-08-21T17:15:52.661Z,41.06
2022-08-21T17:18:24.030Z,40.94
2022-08-21T17:20:52.252Z,41.15
2022-08-21T17:23:20.769Z,41.28
2022-08-21T17:25:53.658Z,41.12
2022-08-21T17:28:26.532Z,41.68
2022-08-21T17:30:56.640Z,41.97
2022-08-21T17:33:25.871Z,41.95
2022-08-21T17:35:54.806Z,42.11
2022-08-21T17:38:22.510Z,42.22
2022-08-21T17:40:50.698Z,42.34
2022-08-21T17:43:18.750Z,42.45
2022-08-21T17:45:48.164Z,42.76
2022-08-21T17:48:15.992Z,42.65
2022-08-21T17:50:43.828Z,43.13
2022-08-21T17:53:11.648Z,43.30
2022-08-21T17:55:41.442Z,43.46
2022-08-21T17:58:10.358Z,43.58
2022-08-21T18:00:38.489Z,43.63
2022-08-21T18:03:14.685Z,43.81
2022-08-21T18:05:42.610Z,43.83
2022-08-21T18:08:10.621Z,44.23
2022-08-21T18:10:41.067Z,44.15
2022-08-21T18:13:12.039Z,44.37
2022-08-21T18:15:40.315Z,44.64
2022-08-21T18:18:13.515Z,44.56
2022-08-21T18:20:49.925Z,44.68
2022-08-21T18:23:43.245Z,44.83
2022-08-21T18:26:19.613Z,44.79
2022-08-21T18:28:50.750Z,44.97
2022-08-21T18:31:27.321Z,45.03
2022-08-21T18:34:20.971Z,45.02
2022-08-21T18:36:53.569Z,45.39
2022-08-21T18:39:36.317Z,45.68
2022-08-21T18:42:14.673Z,45.92
2022-08-21T18:44:48.901Z,45.73
2022-08-21T18:47:27.769Z,45.91
2022-08-21T18:50:13.258Z,46.09
2022-08-21T18:52:54.531Z,46.20
2022-08-21T18:56:06.551Z,46.49
2022-08-21T18:59:35.399Z,46.68
2022-08-21T19:02:11.474Z,46.57
2022-08-21T19:04:44.688Z,46.89
2022-08-21T19:07:15.077Z,47.10
2022-08-21T19:09:56.959Z,47.51
2022-08-21T19:12:33.438Z,47.44
2022-08-21T19:15:01.474Z,47.77
2022-08-21T19:17:30.798Z,47.85
2022-08-21T19:20:04.765Z,48.06
2022-08-21T19:22:33.840Z,47.84
2022-08-21T19:25:01.553Z,48.16
2022-08-21T19:27:29.850Z,48.44
2022-08-21T19:29:57.781Z,48.39
2022-08-21T19:32:28.777Z,49.23
2022-08-21T19:34:56.439Z,48.76
2022-08-21T19:37:25.976Z,48.63
2022-08-21T19:39:55.493Z,48.60
2022-08-21T19:42:25.058Z,48.57
2022-08-21T19:45:13.481Z,48.59
2022-08-21T19:47:46.450Z,48.82
2022-08-21T19:50:17.936Z,48.94
2022-08-21T19:52:51.624Z,48.83
2022-08-21T19:55:23.207Z,49.07
2022-08-21T19:57:51.477Z,49.33
2022-08-21T20:00:19.536Z,49.23
2022-08-21T20:02:48.129Z,49.90
2022-08-21T20:05:18.197Z,49.83
2022-08-21T20:07:46.542Z,49.77
2022-08-21T20:10:14.499Z,49.90
2022-08-21T20:12:47.060Z,50.21
2022-08-21T20:15:20.563Z,50.09
2022-08-21T20:17:48.821Z,50.36
2022-08-21T20:20:16.934Z,50.69
2022-08-21T20:22:44.549Z,50.87
2022-08-21T20:25:12.488Z,50.81
2022-08-21T20:27:42.869Z,50.91
2022-08-21T20:30:11.613Z,50.85
2022-08-21T20:32:39.740Z,51.17
2022-08-21T20:35:12.332Z,51.43
2022-08-21T20:37:41.338Z,52.54
2022-08-21T20:40:13.437Z,52.33
2022-08-21T20:42:47.191Z,52.69
2022-08-21T20:45:21.194Z,52.81
2022-08-21T20:47:52.671Z,53.29
2022-08-21T20:50:23.179Z,53.62
2022-08-21T20:52:54.275Z,53.65
2022-08-21T20:55:29.043Z,53.65
2022-08-21T20:58:04.675Z,53.55
2022-08-21T21:00:36.853Z,53.95
2022-08-21T21:03:10.631Z,53.99
2022-08-21T21:05:44.153Z,53.82
2022-08-21T21:08:19.591Z,54.12
2022-08-21T21:10:54.927Z,54.70
2022-08-21T21:13:30.032Z,54.46
2022-08-21T21:16:03.738Z,55.20
2022-08-21T21:18:37.372Z,55.72
2022-08-21T21:21:16.564Z,55.45
2022-08-21T21:23:50.449Z,55.92
2022-08-21T21:26:22.966Z,55.80
2022-08-21T21:29:09.929Z,55.06
2022-08-21T21:31:38.682Z,55.16
2022-08-21T21:34:06.569Z,54.93
2022-08-21T21:36:43.757Z,55.20
2022-08-21T21:39:17.958Z,55.83
2022-08-21T21:41:50.774Z,55.96
2022-08-21T21:44:47.656Z,55.82
2022-08-21T21:47:31.581Z,56.25
2022-08-21T21:50:07.481Z,56.66
2022-08-21T21:53:00.246Z,56.48
2022-08-21T21:55:47.777Z,56.60
2022-08-21T21:58:49.128Z,57.02
2022-08-21T22:01:27.545Z,57.70
2022-08-21T22:04:03.760Z,57.78
2022-08-21T22:06:40.424Z,58.24
2022-08-21T22:09:17.539Z,58.28
2022-08-21T22:11:58.831Z,59.07
2022-08-21T22:14:35.422Z,60.94
2022-08-21T22:17:10.224Z,61.29
2022-08-21T22:19:42.508Z,61.45
2022-08-21T22:22:15.931Z,62.85
2022-08-21T22:24:49.622Z,64.53
2022-08-21T22:27:22.541Z,65.90
2022-08-21T22:29:53.318Z,66.72
2022-08-21T22:32:30.340Z,66.87
2022-08-21T22:35:15.566Z,68.33
2022-08-21T22:37:47.671Z,68.91
2022-08-21T22:40:24.151Z,69.17
2022-08-21T22:43:02.862Z,68.80
2022-08-21T22:45:30.722Z,70.13
2022-08-21T22:48:11.290Z,69.98
2022-08-21T22:50:57.261Z,70.14
2022-08-21T22:53:29.512Z,70.91
2022-08-21T22:56:00.506Z,72.01
2022-08-21T22:58:30.653Z,72.32
